sensor_id;sensor_type;location;lat;lon;timestamp;temperature;humidity
65824;SHT31;52585;47.566;19.056;2023-02-28T00:01:07;2.98;55.27
65824;SHT31;52585;47.566;19.056;2023-02-28T00:03:33;2.98;55.20
65824;SHT31;52585;47.566;19.056;2023-02-28T00:06:01;2.98;55.12
65824;SHT31;52585;47.566;19.056;2023-02-28T00:08:29;2.98;55.09
65824;SHT31;52585;47.566;19.056;2023-02-28T00:10:54;2.98;55.18
65824;SHT31;52585;47.566;19.056;2023-02-28T00:13:20;2.99;55.33
65824;SHT31;52585;47.566;19.056;2023-02-28T00:15:45;2.97;55.28
65824;SHT31;52585;47.566;19.056;2023-02-28T00:18:11;2.97;55.29
65824;SHT31;52585;47.566;19.056;2023-02-28T00:20:37;2.97;55.29
65824;SHT31;52585;47.566;19.056;2023-02-28T00:23:03;2.96;55.32
65824;SHT31;52585;47.566;19.056;2023-02-28T00:25:28;2.96;55.46
65824;SHT31;52585;47.566;19.056;2023-02-28T00:27:54;2.95;55.38
65824;SHT31;52585;47.566;19.056;2023-02-28T00:30:21;2.91;55.52
65824;SHT31;52585;47.566;19.056;2023-02-28T00:32:49;2.86;55.54
65824;SHT31;52585;47.566;19.056;2023-02-28T00:35:15;2.84;55.55
65824;SHT31;52585;47.566;19.056;2023-02-28T00:37:42;2.81;55.58
65824;SHT31;52585;47.566;19.056;2023-02-28T00:40:08;2.76;55.62
65824;SHT31;52585;47.566;19.056;2023-02-28T00:42:36;2.73;55.83
65824;SHT31;52585;47.566;19.056;2023-02-28T00:45:02;2.72;55.99
65824;SHT31;52585;47.566;19.056;2023-02-28T00:47:30;2.71;56.29
65824;SHT31;52585;47.566;19.056;2023-02-28T00:49:57;2.69;56.27
65824;SHT31;52585;47.566;19.056;2023-02-28T00:52:22;2.68;56.12
65824;SHT31;52585;47.566;19.056;2023-02-28T00:54:48;2.70;56.22
65824;SHT31;52585;47.566;19.056;2023-02-28T00:57:13;2.72;56.17
65824;SHT31;52585;47.566;19.056;2023-02-28T00:59:39;2.74;56.61
65824;SHT31;52585;47.566;19.056;2023-02-28T01:02:05;2.74;56.60
65824;SHT31;52585;47.566;19.056;2023-02-28T01:04:30;2.76;56.68
65824;SHT31;52585;47.566;19.056;2023-02-28T01:06:56;2.78;56.77
65824;SHT31;52585;47.566;19.056;2023-02-28T01:09:21;2.80;57.03
65824;SHT31;52585;47.566;19.056;2023-02-28T01:11:47;2.79;57.02
65824;SHT31;52585;47.566;19.056;2023-02-28T01:14:16;2.81;57.00
65824;SHT31;52585;47.566;19.056;2023-02-28T01:16:43;2.82;57.00
65824;SHT31;52585;47.566;19.056;2023-02-28T01:19:09;2.83;57.03
65824;SHT31;52585;47.566;19.056;2023-02-28T01:21:34;2.85;57.08
65824;SHT31;52585;47.566;19.056;2023-02-28T01:24:01;2.87;57.08
65824;SHT31;52585;47.566;19.056;2023-02-28T01:26:29;2.90;57.26
65824;SHT31;52585;47.566;19.056;2023-02-28T01:28:55;2.93;57.28
65824;SHT31;52585;47.566;19.056;2023-02-28T01:31:21;2.96;57.09
65824;SHT31;52585;47.566;19.056;2023-02-28T01:33:48;2.99;56.90
65824;SHT31;52585;47.566;19.056;2023-02-28T01:36:18;3.00;56.61
65824;SHT31;52585;47.566;19.056;2023-02-28T01:38:48;3.02;56.62
65824;SHT31;52585;47.566;19.056;2023-02-28T01:41:16;3.04;56.76
65824;SHT31;52585;47.566;19.056;2023-02-28T01:46:14;3.04;56.98
65824;SHT31;52585;47.566;19.056;2023-02-28T01:54:12;3.05;57.01
65824;SHT31;52585;47.566;19.056;2023-02-28T01:56:51;3.06;57.00
65824;SHT31;52585;47.566;19.056;2023-02-28T01:59:25;3.05;57.05
65824;SHT31;52585;47.566;19.056;2023-02-28T02:02:01;3.05;57.05
65824;SHT31;52585;47.566;19.056;2023-02-28T02:04:31;3.05;57.13
65824;SHT31;52585;47.566;19.056;2023-02-28T02:07:03;3.05;57.13
65824;SHT31;52585;47.566;19.056;2023-02-28T02:09:30;3.04;57.15
65824;SHT31;52585;47.566;19.056;2023-02-28T02:11:55;3.05;57.13
65824;SHT31;52585;47.566;19.056;2023-02-28T02:14:31;3.05;57.06
65824;SHT31;52585;47.566;19.056;2023-02-28T02:25:45;2.97;57.10
65824;SHT31;52585;47.566;19.056;2023-02-28T02:31:18;2.97;57.28
65824;SHT31;52585;47.566;19.056;2023-02-28T02:34:21;2.97;57.51
65824;SHT31;52585;47.566;19.056;2023-02-28T02:39:59;3.00;57.23
65824;SHT31;52585;47.566;19.056;2023-02-28T02:42:39;3.03;57.06
65824;SHT31;52585;47.566;19.056;2023-02-28T02:45:16;3.01;57.20
65824;SHT31;52585;47.566;19.056;2023-02-28T02:48:08;3.02;56.86
65824;SHT31;52585;47.566;19.056;2023-02-28T02:50:45;3.00;57.06
65824;SHT31;52585;47.566;19.056;2023-02-28T02:53:17;3.01;57.49
65824;SHT31;52585;47.566;19.056;2023-02-28T02:55:49;3.02;57.53
65824;SHT31;52585;47.566;19.056;2023-02-28T02:58:20;3.03;57.55
65824;SHT31;52585;47.566;19.056;2023-02-28T03:00:53;3.05;57.59
65824;SHT31;52585;47.566;19.056;2023-02-28T03:03:24;3.06;57.72
65824;SHT31;52585;47.566;19.056;2023-02-28T03:05:54;3.06;57.79
65824;SHT31;52585;47.566;19.056;2023-02-28T03:08:22;3.08;57.87
65824;SHT31;52585;47.566;19.056;2023-02-28T03:10:48;3.09;57.91
65824;SHT31;52585;47.566;19.056;2023-02-28T03:27:18;3.14;58.25
65824;SHT31;52585;47.566;19.056;2023-02-28T03:29:58;3.13;58.30
65824;SHT31;52585;47.566;19.056;2023-02-28T03:32:33;3.14;58.34
65824;SHT31;52585;47.566;19.056;2023-02-28T03:35:20;3.15;58.42
65824;SHT31;52585;47.566;19.056;2023-02-28T03:37:52;3.16;58.27
65824;SHT31;52585;47.566;19.056;2023-02-28T03:40:30;3.17;58.29
65824;SHT31;52585;47.566;19.056;2023-02-28T03:43:03;3.17;58.46
65824;SHT31;52585;47.566;19.056;2023-02-28T03:45:38;3.15;58.60
65824;SHT31;52585;47.566;19.056;2023-02-28T03:50:54;3.16;58.11
65824;SHT31;52585;47.566;19.056;2023-02-28T03:56:24;3.17;58.01
65824;SHT31;52585;47.566;19.056;2023-02-28T04:01:56;3.19;57.85
65824;SHT31;52585;47.566;19.056;2023-02-28T04:04:23;3.20;57.75
65824;SHT31;52585;47.566;19.056;2023-02-28T04:06:50;3.21;57.40
65824;SHT31;52585;47.566;19.056;2023-02-28T04:09:18;3.21;57.17
65824;SHT31;52585;47.566;19.056;2023-02-28T04:11:44;3.21;57.16
65824;SHT31;52585;47.566;19.056;2023-02-28T04:14:18;3.23;57.02
65824;SHT31;52585;47.566;19.056;2023-02-28T04:16:44;3.21;56.88
65824;SHT31;52585;47.566;19.056;2023-02-28T04:19:11;3.21;56.83
65824;SHT31;52585;47.566;19.056;2023-02-28T04:21:39;3.21;56.81
65824;SHT31;52585;47.566;19.056;2023-02-28T04:24:21;3.22;56.97
65824;SHT31;52585;47.566;19.056;2023-02-28T04:26:52;3.23;56.88
65824;SHT31;52585;47.566;19.056;2023-02-28T04:29:24;3.24;56.86
65824;SHT31;52585;47.566;19.056;2023-02-28T04:31:53;3.25;56.69
65824;SHT31;52585;47.566;19.056;2023-02-28T04:34:21;3.27;56.76
65824;SHT31;52585;47.566;19.056;2023-02-28T04:36:47;3.27;56.59
65824;SHT31;52585;47.566;19.056;2023-02-28T04:39:18;3.27;56.49
65824;SHT31;52585;47.566;19.056;2023-02-28T04:41:45;3.28;56.47
65824;SHT31;52585;47.566;19.056;2023-02-28T04:44:11;3.28;56.38
65824;SHT31;52585;47.566;19.056;2023-02-28T04:46:37;3.30;56.52
65824;SHT31;52585;47.566;19.056;2023-02-28T04:49:02;3.31;56.63
65824;SHT31;52585;47.566;19.056;2023-02-28T04:51:28;3.31;56.57
65824;SHT31;52585;47.566;19.056;2023-02-28T04:53:54;3.31;56.26
65824;SHT31;52585;47.566;19.056;2023-02-28T04:56:20;3.32;56.35
65824;SHT31;52585;47.566;19.056;2023-02-28T04:58:47;3.33;56.40
65824;SHT31;52585;47.566;19.056;2023-02-28T05:01:17;3.35;56.19
65824;SHT31;52585;47.566;19.056;2023-02-28T05:03:48;3.34;56.07
65824;SHT31;52585;47.566;19.056;2023-02-28T05:06:15;3.34;56.16
65824;SHT31;52585;47.566;19.056;2023-02-28T05:08:43;3.34;56.12
65824;SHT31;52585;47.566;19.056;2023-02-28T05:11:14;3.34;56.00
65824;SHT31;52585;47.566;19.056;2023-02-28T05:14:03;3.34;55.98
65824;SHT31;52585;47.566;19.056;2023-02-28T05:16:35;3.35;55.75
65824;SHT31;52585;47.566;19.056;2023-02-28T05:19:00;3.34;55.62
65824;SHT31;52585;47.566;19.056;2023-02-28T05:21:30;3.35;55.62
65824;SHT31;52585;47.566;19.056;2023-02-28T05:24:00;3.34;55.46
65824;SHT31;52585;47.566;19.056;2023-02-28T05:26:36;3.35;55.48
65824;SHT31;52585;47.566;19.056;2023-02-28T05:29:04;3.34;55.57
65824;SHT31;52585;47.566;19.056;2023-02-28T05:31:30;3.36;55.55
65824;SHT31;52585;47.566;19.056;2023-02-28T05:33:57;3.36;55.59
65824;SHT31;52585;47.566;19.056;2023-02-28T05:36:22;3.37;55.63
65824;SHT31;52585;47.566;19.056;2023-02-28T05:38:49;3.38;55.58
65824;SHT31;52585;47.566;19.056;2023-02-28T05:41:16;3.38;55.60
65824;SHT31;52585;47.566;19.056;2023-02-28T05:43:44;3.40;55.50
65824;SHT31;52585;47.566;19.056;2023-02-28T05:46:11;3.40;55.51
65824;SHT31;52585;47.566;19.056;2023-02-28T05:48:38;3.41;55.22
65824;SHT31;52585;47.566;19.056;2023-02-28T05:51:07;3.41;55.02
65824;SHT31;52585;47.566;19.056;2023-02-28T05:53:34;3.41;54.81
65824;SHT31;52585;47.566;19.056;2023-02-28T05:56:00;3.41;54.77
65824;SHT31;52585;47.566;19.056;2023-02-28T05:58:26;3.41;54.84
65824;SHT31;52585;47.566;19.056;2023-02-28T06:00:55;3.43;54.90
65824;SHT31;52585;47.566;19.056;2023-02-28T06:03:26;3.43;54.77
65824;SHT31;52585;47.566;19.056;2023-02-28T06:05:52;3.44;54.46
65824;SHT31;52585;47.566;19.056;2023-02-28T06:08:18;3.45;54.40
65824;SHT31;52585;47.566;19.056;2023-02-28T06:10:44;3.45;54.27
65824;SHT31;52585;47.566;19.056;2023-02-28T06:13:10;3.45;54.34
65824;SHT31;52585;47.566;19.056;2023-02-28T06:15:37;3.44;53.86
65824;SHT31;52585;47.566;19.056;2023-02-28T06:18:03;3.43;53.88
65824;SHT31;52585;47.566;19.056;2023-02-28T06:20:29;3.44;53.81
65824;SHT31;52585;47.566;19.056;2023-02-28T06:22:55;3.43;53.80
65824;SHT31;52585;47.566;19.056;2023-02-28T06:25:24;3.43;53.73
65824;SHT31;52585;47.566;19.056;2023-02-28T06:27:51;3.44;53.74
65824;SHT31;52585;47.566;19.056;2023-02-28T06:30:17;3.47;53.68
65824;SHT31;52585;47.566;19.056;2023-02-28T06:32:43;3.47;53.64
65824;SHT31;52585;47.566;19.056;2023-02-28T06:35:08;3.50;53.47
65824;SHT31;52585;47.566;19.056;2023-02-28T06:37:35;3.52;53.28
65824;SHT31;52585;47.566;19.056;2023-02-28T06:40:01;3.53;53.42
65824;SHT31;52585;47.566;19.056;2023-02-28T06:42:28;3.56;53.35
65824;SHT31;52585;47.566;19.056;2023-02-28T06:44:56;3.58;53.22
65824;SHT31;52585;47.566;19.056;2023-02-28T06:47:23;3.59;53.06
65824;SHT31;52585;47.566;19.056;2023-02-28T06:49:49;3.60;52.88
65824;SHT31;52585;47.566;19.056;2023-02-28T06:52:15;3.62;52.67
65824;SHT31;52585;47.566;19.056;2023-02-28T06:54:41;3.63;52.57
65824;SHT31;52585;47.566;19.056;2023-02-28T06:57:07;3.67;52.62
65824;SHT31;52585;47.566;19.056;2023-02-28T06:59:33;3.68;52.68
65824;SHT31;52585;47.566;19.056;2023-02-28T07:02:00;3.71;52.44
65824;SHT31;52585;47.566;19.056;2023-02-28T07:04:27;3.73;52.62
65824;SHT31;52585;47.566;19.056;2023-02-28T07:06:54;3.75;52.38
65824;SHT31;52585;47.566;19.056;2023-02-28T07:09:21;3.78;52.27
65824;SHT31;52585;47.566;19.056;2023-02-28T07:11:48;3.78;51.96
65824;SHT31;52585;47.566;19.056;2023-02-28T07:14:13;3.78;52.02
65824;SHT31;52585;47.566;19.056;2023-02-28T07:16:39;3.78;51.99
65824;SHT31;52585;47.566;19.056;2023-02-28T07:19:05;3.80;51.98
65824;SHT31;52585;47.566;19.056;2023-02-28T07:21:30;3.83;52.13
65824;SHT31;52585;47.566;19.056;2023-02-28T07:23:56;3.84;52.02
65824;SHT31;52585;47.566;19.056;2023-02-28T07:26:22;3.85;51.83
65824;SHT31;52585;47.566;19.056;2023-02-28T07:28:47;3.89;51.66
65824;SHT31;52585;47.566;19.056;2023-02-28T07:31:14;3.93;51.63
65824;SHT31;52585;47.566;19.056;2023-02-28T07:33:40;3.95;51.75
65824;SHT31;52585;47.566;19.056;2023-02-28T07:36:11;3.98;51.74
65824;SHT31;52585;47.566;19.056;2023-02-28T07:38:44;4.01;51.72
65824;SHT31;52585;47.566;19.056;2023-02-28T07:41:16;4.03;51.70
65824;SHT31;52585;47.566;19.056;2023-02-28T07:43:45;4.04;51.52
65824;SHT31;52585;47.566;19.056;2023-02-28T07:46:11;4.06;51.61
65824;SHT31;52585;47.566;19.056;2023-02-28T07:48:43;4.08;51.60
65824;SHT31;52585;47.566;19.056;2023-02-28T07:51:09;4.13;51.73
65824;SHT31;52585;47.566;19.056;2023-02-28T07:53:35;4.16;51.73
65824;SHT31;52585;47.566;19.056;2023-02-28T07:56:01;4.18;51.59
65824;SHT31;52585;47.566;19.056;2023-02-28T07:58:29;4.22;51.53
65824;SHT31;52585;47.566;19.056;2023-02-28T08:00:55;4.26;51.37
65824;SHT31;52585;47.566;19.056;2023-02-28T08:03:23;4.28;51.45
65824;SHT31;52585;47.566;19.056;2023-02-28T08:05:50;4.30;51.24
65824;SHT31;52585;47.566;19.056;2023-02-28T08:08:17;4.30;51.10
65824;SHT31;52585;47.566;19.056;2023-02-28T08:10:43;4.32;51.15
65824;SHT31;52585;47.566;19.056;2023-02-28T08:13:09;4.34;50.96
65824;SHT31;52585;47.566;19.056;2023-02-28T08:15:35;4.36;51.14
65824;SHT31;52585;47.566;19.056;2023-02-28T08:18:01;4.39;51.25
65824;SHT31;52585;47.566;19.056;2023-02-28T08:20:27;4.42;51.13
65824;SHT31;52585;47.566;19.056;2023-02-28T08:22:53;4.44;51.17
65824;SHT31;52585;47.566;19.056;2023-02-28T08:25:19;4.48;51.13
65824;SHT31;52585;47.566;19.056;2023-02-28T08:27:45;4.50;51.10
65824;SHT31;52585;47.566;19.056;2023-02-28T08:30:11;4.53;50.83
65824;SHT31;52585;47.566;19.056;2023-02-28T08:32:39;4.57;50.86
65824;SHT31;52585;47.566;19.056;2023-02-28T08:35:05;4.60;50.72
65824;SHT31;52585;47.566;19.056;2023-02-28T08:37:34;4.63;50.64
65824;SHT31;52585;47.566;19.056;2023-02-28T08:39:59;4.66;50.38
65824;SHT31;52585;47.566;19.056;2023-02-28T08:42:25;4.70;50.27
65824;SHT31;52585;47.566;19.056;2023-02-28T08:44:51;4.73;50.08
65824;SHT31;52585;47.566;19.056;2023-02-28T08:47:16;4.78;50.01
65824;SHT31;52585;47.566;19.056;2023-02-28T08:49:42;4.80;49.67
65824;SHT31;52585;47.566;19.056;2023-02-28T08:52:08;4.85;49.87
65824;SHT31;52585;47.566;19.056;2023-02-28T08:54:33;4.89;49.85
65824;SHT31;52585;47.566;19.056;2023-02-28T08:57:00;4.93;49.64
65824;SHT31;52585;47.566;19.056;2023-02-28T08:59:27;4.97;49.45
65824;SHT31;52585;47.566;19.056;2023-02-28T09:01:52;5.00;49.66
65824;SHT31;52585;47.566;19.056;2023-02-28T09:04:18;5.01;49.70
65824;SHT31;52585;47.566;19.056;2023-02-28T09:06:43;5.05;49.75
65824;SHT31;52585;47.566;19.056;2023-02-28T09:09:09;5.08;49.49
65824;SHT31;52585;47.566;19.056;2023-02-28T09:11:36;5.11;49.52
65824;SHT31;52585;47.566;19.056;2023-02-28T09:14:02;5.12;49.30
65824;SHT31;52585;47.566;19.056;2023-02-28T09:16:29;5.15;49.41
65824;SHT31;52585;47.566;19.056;2023-02-28T09:18:57;5.16;49.19
65824;SHT31;52585;47.566;19.056;2023-02-28T09:21:23;5.14;48.43
65824;SHT31;52585;47.566;19.056;2023-02-28T09:23:49;5.16;48.84
65824;SHT31;52585;47.566;19.056;2023-02-28T09:28:42;5.24;49.29
65824;SHT31;52585;47.566;19.056;2023-02-28T09:31:13;5.27;49.04
65824;SHT31;52585;47.566;19.056;2023-02-28T09:33:48;5.31;49.12
65824;SHT31;52585;47.566;19.056;2023-02-28T09:36:16;5.30;49.18
65824;SHT31;52585;47.566;19.056;2023-02-28T09:38:42;5.30;49.20
65824;SHT31;52585;47.566;19.056;2023-02-28T09:41:15;5.34;49.16
65824;SHT31;52585;47.566;19.056;2023-02-28T09:43:52;5.36;49.14
65824;SHT31;52585;47.566;19.056;2023-02-28T09:46:40;5.39;49.07
65824;SHT31;52585;47.566;19.056;2023-02-28T09:49:16;5.38;48.77
65824;SHT31;52585;47.566;19.056;2023-02-28T09:51:50;5.40;48.89
65824;SHT31;52585;47.566;19.056;2023-02-28T09:54:27;5.42;48.68
65824;SHT31;52585;47.566;19.056;2023-02-28T09:56:58;5.43;48.50
65824;SHT31;52585;47.566;19.056;2023-02-28T10:05:44;5.52;48.38
65824;SHT31;52585;47.566;19.056;2023-02-28T10:08:28;5.55;48.52
65824;SHT31;52585;47.566;19.056;2023-02-28T10:11:06;5.58;48.12
65824;SHT31;52585;47.566;19.056;2023-02-28T10:16:27;5.62;48.28
65824;SHT31;52585;47.566;19.056;2023-02-28T10:19:14;5.60;48.09
65824;SHT31;52585;47.566;19.056;2023-02-28T10:22:01;5.58;47.43
65824;SHT31;52585;47.566;19.056;2023-02-28T10:24:51;5.59;47.57
65824;SHT31;52585;47.566;19.056;2023-02-28T10:27:25;5.63;47.71
65824;SHT31;52585;47.566;19.056;2023-02-28T10:29:56;5.65;47.81
65824;SHT31;52585;47.566;19.056;2023-02-28T10:37:50;5.69;47.98
65824;SHT31;52585;47.566;19.056;2023-02-28T10:42:55;5.76;48.19
65824;SHT31;52585;47.566;19.056;2023-02-28T10:45:26;5.76;47.89
65824;SHT31;52585;47.566;19.056;2023-02-28T10:58:50;5.97;47.95
65824;SHT31;52585;47.566;19.056;2023-02-28T11:01:18;6.01;48.33
65824;SHT31;52585;47.566;19.056;2023-02-28T11:03:49;6.06;48.20
65824;SHT31;52585;47.566;19.056;2023-02-28T11:06:26;6.09;47.98
65824;SHT31;52585;47.566;19.056;2023-02-28T11:11:50;6.12;48.30
65824;SHT31;52585;47.566;19.056;2023-02-28T11:14:24;6.13;48.55
65824;SHT31;52585;47.566;19.056;2023-02-28T11:16:54;6.14;48.43
65824;SHT31;52585;47.566;19.056;2023-02-28T11:19:28;6.15;48.46
65824;SHT31;52585;47.566;19.056;2023-02-28T11:22:03;6.17;48.58
65824;SHT31;52585;47.566;19.056;2023-02-28T11:24:35;6.20;48.89
65824;SHT31;52585;47.566;19.056;2023-02-28T11:27:24;6.22;49.09
65824;SHT31;52585;47.566;19.056;2023-02-28T11:29:54;6.24;49.13
65824;SHT31;52585;47.566;19.056;2023-02-28T11:32:21;6.27;49.14
65824;SHT31;52585;47.566;19.056;2023-02-28T11:35:04;6.28;48.60
65824;SHT31;52585;47.566;19.056;2023-02-28T11:37:47;6.30;48.88
65824;SHT31;52585;47.566;19.056;2023-02-28T11:40:21;6.33;49.12
65824;SHT31;52585;47.566;19.056;2023-02-28T11:46:03;6.39;48.64
65824;SHT31;52585;47.566;19.056;2023-02-28T11:51:48;6.42;48.56
65824;SHT31;52585;47.566;19.056;2023-02-28T12:15:44;6.57;49.22
65824;SHT31;52585;47.566;19.056;2023-02-28T12:21:16;6.71;48.93
65824;SHT31;52585;47.566;19.056;2023-02-28T12:29:02;6.87;48.91
65824;SHT31;52585;47.566;19.056;2023-02-28T12:31:46;6.91;49.74
65824;SHT31;52585;47.566;19.056;2023-02-28T12:34:25;6.98;49.72
65824;SHT31;52585;47.566;19.056;2023-02-28T12:36:58;7.05;49.58
65824;SHT31;52585;47.566;19.056;2023-02-28T12:39:40;7.10;49.22
65824;SHT31;52585;47.566;19.056;2023-02-28T12:42:13;7.13;49.26
65824;SHT31;52585;47.566;19.056;2023-02-28T12:44:56;7.15;48.87
65824;SHT31;52585;47.566;19.056;2023-02-28T12:47:26;7.16;49.00
65824;SHT31;52585;47.566;19.056;2023-02-28T12:49:53;7.16;49.30
65824;SHT31;52585;47.566;19.056;2023-02-28T12:52:29;7.18;49.30
65824;SHT31;52585;47.566;19.056;2023-02-28T13:10:00;7.23;49.44
65824;SHT31;52585;47.566;19.056;2023-02-28T13:12:32;7.24;49.52
65824;SHT31;52585;47.566;19.056;2023-02-28T13:17:55;7.26;49.23
65824;SHT31;52585;47.566;19.056;2023-02-28T13:20:25;7.27;49.06
65824;SHT31;52585;47.566;19.056;2023-02-28T13:22:57;7.27;49.03
65824;SHT31;52585;47.566;19.056;2023-02-28T13:27:48;7.28;49.17
65824;SHT31;52585;47.566;19.056;2023-02-28T13:33:23;7.30;49.03
65824;SHT31;52585;47.566;19.056;2023-02-28T13:36:00;7.30;49.00
65824;SHT31;52585;47.566;19.056;2023-02-28T13:38:44;7.30;48.87
65824;SHT31;52585;47.566;19.056;2023-02-28T13:44:39;7.32;49.07
65824;SHT31;52585;47.566;19.056;2023-02-28T13:51:48;7.36;48.95
65824;SHT31;52585;47.566;19.056;2023-02-28T14:02:40;7.39;49.22
65824;SHT31;52585;47.566;19.056;2023-02-28T14:05:21;7.39;48.81
65824;SHT31;52585;47.566;19.056;2023-02-28T14:07:52;7.40;49.00
65824;SHT31;52585;47.566;19.056;2023-02-28T14:10:30;7.41;49.04
65824;SHT31;52585;47.566;19.056;2023-02-28T14:13:01;7.43;49.24
65824;SHT31;52585;47.566;19.056;2023-02-28T14:20:58;7.47;48.96
65824;SHT31;52585;47.566;19.056;2023-02-28T14:24:03;7.44;49.14
65824;SHT31;52585;47.566;19.056;2023-02-28T14:37:43;7.38;49.41
65824;SHT31;52585;47.566;19.056;2023-02-28T14:40:17;7.37;49.25
65824;SHT31;52585;47.566;19.056;2023-02-28T14:42:54;7.36;49.28
65824;SHT31;52585;47.566;19.056;2023-02-28T14:45:28;7.37;49.27
65824;SHT31;52585;47.566;19.056;2023-02-28T14:47:57;7.37;49.37
65824;SHT31;52585;47.566;19.056;2023-02-28T14:50:29;7.37;49.48
65824;SHT31;52585;47.566;19.056;2023-02-28T14:53:00;7.38;49.40
65824;SHT31;52585;47.566;19.056;2023-02-28T14:55:31;7.39;49.56
65824;SHT31;52585;47.566;19.056;2023-02-28T14:58:02;7.39;49.46
65824;SHT31;52585;47.566;19.056;2023-02-28T15:00:35;7.40;49.47
65824;SHT31;52585;47.566;19.056;2023-02-28T15:03:18;7.40;49.26
65824;SHT31;52585;47.566;19.056;2023-02-28T15:06:12;7.39;49.41
65824;SHT31;52585;47.566;19.056;2023-02-28T15:08:45;7.40;49.40
65824;SHT31;52585;47.566;19.056;2023-02-28T15:11:15;7.40;49.37
65824;SHT31;52585;47.566;19.056;2023-02-28T15:13:51;7.40;49.49
65824;SHT31;52585;47.566;19.056;2023-02-28T15:16:22;7.40;49.57
65824;SHT31;52585;47.566;19.056;2023-02-28T15:19:04;7.40;49.54
65824;SHT31;52585;47.566;19.056;2023-02-28T15:21:41;7.39;49.35
65824;SHT31;52585;47.566;19.056;2023-02-28T15:27:13;7.38;49.55
65824;SHT31;52585;47.566;19.056;2023-02-28T15:29:47;7.39;49.68
65824;SHT31;52585;47.566;19.056;2023-02-28T15:32:35;7.40;49.82
65824;SHT31;52585;47.566;19.056;2023-02-28T15:37:57;7.41;49.92
65824;SHT31;52585;47.566;19.056;2023-02-28T15:40:57;7.41;50.15
65824;SHT31;52585;47.566;19.056;2023-02-28T15:43:25;7.41;49.90
65824;SHT31;52585;47.566;19.056;2023-02-28T15:45:55;7.42;50.03
65824;SHT31;52585;47.566;19.056;2023-02-28T15:53:29;7.42;50.21
65824;SHT31;52585;47.566;19.056;2023-02-28T15:56:02;7.42;50.14
65824;SHT31;52585;47.566;19.056;2023-02-28T15:58:33;7.43;50.05
65824;SHT31;52585;47.566;19.056;2023-02-28T16:01:16;7.42;50.21
65824;SHT31;52585;47.566;19.056;2023-02-28T16:03:55;7.41;50.24
65824;SHT31;52585;47.566;19.056;2023-02-28T16:06:33;7.41;50.27
65824;SHT31;52585;47.566;19.056;2023-02-28T16:08:59;7.40;50.29
65824;SHT31;52585;47.566;19.056;2023-02-28T16:11:25;7.39;50.33
65824;SHT31;52585;47.566;19.056;2023-02-28T16:13:51;7.38;50.59
65824;SHT31;52585;47.566;19.056;2023-02-28T16:16:19;7.36;50.59
65824;SHT31;52585;47.566;19.056;2023-02-28T16:18:50;7.36;50.68
65824;SHT31;52585;47.566;19.056;2023-02-28T16:21:16;7.34;50.66
65824;SHT31;52585;47.566;19.056;2023-02-28T16:23:42;7.33;50.69
65824;SHT31;52585;47.566;19.056;2023-02-28T16:26:08;7.32;50.80
65824;SHT31;52585;47.566;19.056;2023-02-28T16:28:47;7.29;50.81
65824;SHT31;52585;47.566;19.056;2023-02-28T16:31:13;7.29;50.88
65824;SHT31;52585;47.566;19.056;2023-02-28T16:33:42;7.26;50.88
65824;SHT31;52585;47.566;19.056;2023-02-28T16:36:16;7.25;50.94
65824;SHT31;52585;47.566;19.056;2023-02-28T16:38:48;7.23;50.96
65824;SHT31;52585;47.566;19.056;2023-02-28T16:41:16;7.21;51.00
65824;SHT31;52585;47.566;19.056;2023-02-28T16:43:47;7.20;50.99
65824;SHT31;52585;47.566;19.056;2023-02-28T16:46:16;7.18;51.06
65824;SHT31;52585;47.566;19.056;2023-02-28T16:48:43;7.18;51.18
65824;SHT31;52585;47.566;19.056;2023-02-28T16:51:13;7.17;51.18
65824;SHT31;52585;47.566;19.056;2023-02-28T16:53:41;7.17;51.31
65824;SHT31;52585;47.566;19.056;2023-02-28T16:56:13;7.17;51.33
65824;SHT31;52585;47.566;19.056;2023-02-28T16:58:46;7.16;51.39
65824;SHT31;52585;47.566;19.056;2023-02-28T17:01:13;7.15;51.40
65824;SHT31;52585;47.566;19.056;2023-02-28T17:03:40;7.13;51.40
65824;SHT31;52585;47.566;19.056;2023-02-28T17:06:10;7.15;51.78
65824;SHT31;52585;47.566;19.056;2023-02-28T17:08:45;7.14;52.17
65824;SHT31;52585;47.566;19.056;2023-02-28T17:11:11;7.12;51.83
65824;SHT31;52585;47.566;19.056;2023-02-28T17:13:37;7.10;51.85
65824;SHT31;52585;47.566;19.056;2023-02-28T17:16:02;7.10;51.91
65824;SHT31;52585;47.566;19.056;2023-02-28T17:18:29;7.09;51.85
65824;SHT31;52585;47.566;19.056;2023-02-28T17:20:59;7.07;51.82
65824;SHT31;52585;47.566;19.056;2023-02-28T17:23:26;7.06;52.06
65824;SHT31;52585;47.566;19.056;2023-02-28T17:25:52;7.04;52.19
65824;SHT31;52585;47.566;19.056;2023-02-28T17:28:20;7.05;52.18
65824;SHT31;52585;47.566;19.056;2023-02-28T17:30:47;7.04;52.16
65824;SHT31;52585;47.566;19.056;2023-02-28T17:33:13;7.04;52.25
65824;SHT31;52585;47.566;19.056;2023-02-28T17:35:40;7.04;52.29
65824;SHT31;52585;47.566;19.056;2023-02-28T17:38:16;7.04;52.34
65824;SHT31;52585;47.566;19.056;2023-02-28T17:40:48;7.04;52.50
65824;SHT31;52585;47.566;19.056;2023-02-28T17:43:14;7.03;52.59
65824;SHT31;52585;47.566;19.056;2023-02-28T17:45:40;7.03;52.64
65824;SHT31;52585;47.566;19.056;2023-02-28T17:48:08;7.03;52.81
65824;SHT31;52585;47.566;19.056;2023-02-28T17:50:37;7.01;52.81
65824;SHT31;52585;47.566;19.056;2023-02-28T17:53:02;7.01;52.89
65824;SHT31;52585;47.566;19.056;2023-02-28T17:55:28;7.00;53.01
65824;SHT31;52585;47.566;19.056;2023-02-28T17:57:54;7.00;53.41
65824;SHT31;52585;47.566;19.056;2023-02-28T18:00:22;6.99;53.20
65824;SHT31;52585;47.566;19.056;2023-02-28T18:02:49;6.97;53.21
65824;SHT31;52585;47.566;19.056;2023-02-28T18:05:15;6.97;53.29
65824;SHT31;52585;47.566;19.056;2023-02-28T18:07:42;6.97;53.23
65824;SHT31;52585;47.566;19.056;2023-02-28T18:10:12;6.96;53.17
65824;SHT31;52585;47.566;19.056;2023-02-28T18:12:49;6.96;53.34
65824;SHT31;52585;47.566;19.056;2023-02-28T18:15:20;6.96;53.53
65824;SHT31;52585;47.566;19.056;2023-02-28T18:17:47;6.96;53.47
65824;SHT31;52585;47.566;19.056;2023-02-28T18:20:14;6.97;53.54
65824;SHT31;52585;47.566;19.056;2023-02-28T18:22:41;6.96;53.65
65824;SHT31;52585;47.566;19.056;2023-02-28T18:25:08;6.96;54.01
65824;SHT31;52585;47.566;19.056;2023-02-28T18:27:39;6.94;53.80
65824;SHT31;52585;47.566;19.056;2023-02-28T18:30:19;6.94;53.95
65824;SHT31;52585;47.566;19.056;2023-02-28T18:32:48;6.92;54.18
65824;SHT31;52585;47.566;19.056;2023-02-28T18:35:14;6.91;54.02
65824;SHT31;52585;47.566;19.056;2023-02-28T18:37:59;6.92;54.12
65824;SHT31;52585;47.566;19.056;2023-02-28T18:40:34;6.92;54.22
65824;SHT31;52585;47.566;19.056;2023-02-28T18:43:01;6.91;54.13
65824;SHT31;52585;47.566;19.056;2023-02-28T18:45:30;6.92;54.16
65824;SHT31;52585;47.566;19.056;2023-02-28T18:47:56;6.91;54.08
65824;SHT31;52585;47.566;19.056;2023-02-28T18:50:22;6.91;54.20